sensor_id;sensor_type;location;lat;lon;timestamp;P1;durP1;ratioP1;P2;durP2;ratioP2
69280;SDS011;56392;51.082;17.080;2024-02-26T00:01:19;34.97;;;13.10;;
69280;SDS011;56392;51.082;17.080;2024-02-26T00:06:42;35.72;;;13.57;;
69280;SDS011;56392;51.082;17.080;2024-02-26T00:12:05;33.05;;;12.80;;
69280;SDS011;56392;51.082;17.080;2024-02-26T00:17:30;30.17;;;12.07;;
69280;SDS011;56392;51.082;17.080;2024-02-26T00:22:53;34.65;;;12.98;;
69280;SDS011;56392;51.082;17.080;2024-02-26T00:28:16;38.75;;;14.20;;
69280;SDS011;56392;51.082;17.080;2024-02-26T00:33:42;34.63;;;14.33;;
69280;SDS011;56392;51.082;17.080;2024-02-26T00:39:05;29.95;;;13.15;;
69280;SDS011;56392;51.082;17.080;2024-02-26T00:44:29;35.75;;;13.63;;
69280;SDS011;56392;51.082;17.080;2024-02-26T00:49:53;32.63;;;14.23;;
69280;SDS011;56392;51.082;17.080;2024-02-26T00:55:17;31.00;;;14.02;;
69280;SDS011;56392;51.082;17.080;2024-02-26T01:00:41;34.58;;;15.93;;
69280;SDS011;56392;51.082;17.080;2024-02-26T01:06:05;42.77;;;17.97;;
69280;SDS011;56392;51.082;17.080;2024-02-26T01:11:28;44.85;;;17.45;;
69280;SDS011;56392;51.082;17.080;2024-02-26T01:16:51;41.03;;;15.37;;
69280;SDS011;56392;51.082;17.080;2024-02-26T01:22:16;35.60;;;14.37;;
69280;SDS011;56392;51.082;17.080;2024-02-26T01:27:41;33.47;;;13.63;;
69280;SDS011;56392;51.082;17.080;2024-02-26T01:33:05;33.73;;;15.23;;
69280;SDS011;56392;51.082;17.080;2024-02-26T01:38:30;33.07;;;13.17;;
69280;SDS011;56392;51.082;17.080;2024-02-26T01:43:53;40.33;;;15.10;;
69280;SDS011;56392;51.082;17.080;2024-02-26T01:49:16;39.10;;;15.10;;
69280;SDS011;56392;51.082;17.080;2024-02-26T01:54:40;39.13;;;14.70;;
69280;SDS011;56392;51.082;17.080;2024-02-26T02:00:07;40.88;;;15.90;;
69280;SDS011;56392;51.082;17.080;2024-02-26T02:05:32;39.53;;;15.57;;
69280;SDS011;56392;51.082;17.080;2024-02-26T02:10:57;43.00;;;16.83;;
69280;SDS011;56392;51.082;17.080;2024-02-26T02:16:21;49.95;;;18.63;;
69280;SDS011;56392;51.082;17.080;2024-02-26T02:21:46;47.67;;;17.87;;
69280;SDS011;56392;51.082;17.080;2024-02-26T02:27:09;53.25;;;19.63;;
69280;SDS011;56392;51.082;17.080;2024-02-26T02:32:32;55.73;;;20.40;;
69280;SDS011;56392;51.082;17.080;2024-02-26T02:37:57;54.47;;;20.40;;
69280;SDS011;56392;51.082;17.080;2024-02-26T02:43:20;51.17;;;20.08;;
69280;SDS011;56392;51.082;17.080;2024-02-26T02:48:43;50.83;;;18.67;;
69280;SDS011;56392;51.082;17.080;2024-02-26T02:54:08;52.07;;;19.60;;
69280;SDS011;56392;51.082;17.080;2024-02-26T02:59:31;55.05;;;19.80;;
69280;SDS011;56392;51.082;17.080;2024-02-26T03:04:54;47.60;;;19.70;;
69280;SDS011;56392;51.082;17.080;2024-02-26T03:10:19;58.22;;;19.90;;
69280;SDS011;56392;51.082;17.080;2024-02-26T03:15:43;52.80;;;19.40;;
69280;SDS011;56392;51.082;17.080;2024-02-26T03:21:06;45.00;;;16.87;;
69280;SDS011;56392;51.082;17.080;2024-02-26T03:26:31;37.58;;;15.50;;
69280;SDS011;56392;51.082;17.080;2024-02-26T03:31:54;39.57;;;15.83;;
69280;SDS011;56392;51.082;17.080;2024-02-26T03:37:17;49.42;;;16.27;;
69280;SDS011;56392;51.082;17.080;2024-02-26T03:42:42;38.90;;;16.23;;
69280;SDS011;56392;51.082;17.080;2024-02-26T03:48:05;40.53;;;15.83;;
69280;SDS011;56392;51.082;17.080;2024-02-26T03:53:29;42.47;;;15.60;;
69280;SDS011;56392;51.082;17.080;2024-02-26T03:58:53;40.00;;;15.07;;
69280;SDS011;56392;51.082;17.080;2024-02-26T04:04:17;37.30;;;15.50;;
69280;SDS011;56392;51.082;17.080;2024-02-26T04:09:40;43.17;;;15.23;;
69280;SDS011;56392;51.082;17.080;2024-02-26T04:15:05;38.10;;;15.07;;
69280;SDS011;56392;51.082;17.080;2024-02-26T04:20:29;36.83;;;14.70;;
69280;SDS011;56392;51.082;17.080;2024-02-26T04:25:52;34.20;;;14.48;;
69280;SDS011;56392;51.082;17.080;2024-02-26T04:31:17;37.67;;;15.17;;
69280;SDS011;56392;51.082;17.080;2024-02-26T04:36:40;34.55;;;14.93;;
69280;SDS011;56392;51.082;17.080;2024-02-26T04:42:04;32.00;;;14.00;;
69280;SDS011;56392;51.082;17.080;2024-02-26T04:47:28;36.37;;;13.73;;
69280;SDS011;56392;51.082;17.080;2024-02-26T04:52:52;35.05;;;13.63;;
69280;SDS011;56392;51.082;17.080;2024-02-26T04:58:15;30.42;;;12.65;;
69280;SDS011;56392;51.082;17.080;2024-02-26T05:03:39;32.93;;;12.37;;
69280;SDS011;56392;51.082;17.080;2024-02-26T05:09:03;35.53;;;13.45;;
69280;SDS011;56392;51.082;17.080;2024-02-26T05:14:26;32.23;;;12.93;;
69280;SDS011;56392;51.082;17.080;2024-02-26T05:19:50;31.17;;;12.80;;
69280;SDS011;56392;51.082;17.080;2024-02-26T05:25:14;33.50;;;13.02;;
69280;SDS011;56392;51.082;17.080;2024-02-26T05:30:37;31.47;;;12.20;;
69280;SDS011;56392;51.082;17.080;2024-02-26T05:36:03;31.13;;;12.85;;
69280;SDS011;56392;51.082;17.080;2024-02-26T05:41:27;30.47;;;11.87;;
69280;SDS011;56392;51.082;17.080;2024-02-26T05:46:50;27.73;;;12.13;;
69280;SDS011;56392;51.082;17.080;2024-02-26T05:52:14;32.55;;;12.85;;
69280;SDS011;56392;51.082;17.080;2024-02-26T05:57:37;31.47;;;12.50;;
69280;SDS011;56392;51.082;17.080;2024-02-26T06:03:00;27.45;;;11.55;;
69280;SDS011;56392;51.082;17.080;2024-02-26T06:08:25;31.55;;;11.88;;
69280;SDS011;56392;51.082;17.080;2024-02-26T06:13:50;30.83;;;12.53;;
69280;SDS011;56392;51.082;17.080;2024-02-26T06:19:13;31.00;;;12.20;;
69280;SDS011;56392;51.082;17.080;2024-02-26T06:24:37;27.75;;;11.45;;
69280;SDS011;56392;51.082;17.080;2024-02-26T06:30:00;28.10;;;11.23;;
69280;SDS011;56392;51.082;17.080;2024-02-26T06:35:24;28.67;;;11.63;;
69280;SDS011;56392;51.082;17.080;2024-02-26T06:40:48;26.97;;;12.07;;
69280;SDS011;56392;51.082;17.080;2024-02-26T06:46:11;29.67;;;11.43;;
69280;SDS011;56392;51.082;17.080;2024-02-26T06:51:34;25.08;;;11.40;;
69280;SDS011;56392;51.082;17.080;2024-02-26T06:56:59;31.10;;;12.13;;
69280;SDS011;56392;51.082;17.080;2024-02-26T07:02:23;30.87;;;13.20;;
69280;SDS011;56392;51.082;17.080;2024-02-26T07:07:46;26.75;;;12.93;;
69280;SDS011;56392;51.082;17.080;2024-02-26T07:13:11;25.27;;;12.30;;
69280;SDS011;56392;51.082;17.080;2024-02-26T07:18:34;35.87;;;17.17;;
69280;SDS011;56392;51.082;17.080;2024-02-26T07:23:57;35.22;;;15.35;;
69280;SDS011;56392;51.082;17.080;2024-02-26T07:29:22;31.25;;;14.00;;
69280;SDS011;56392;51.082;17.080;2024-02-26T07:34:45;32.60;;;15.17;;
69280;SDS011;56392;51.082;17.080;2024-02-26T07:40:08;35.75;;;14.98;;
69280;SDS011;56392;51.082;17.080;2024-02-26T07:45:33;33.30;;;15.20;;
69280;SDS011;56392;51.082;17.080;2024-02-26T07:50:57;33.53;;;15.60;;
69280;SDS011;56392;51.082;17.080;2024-02-26T07:56:21;32.90;;;15.30;;
69280;SDS011;56392;51.082;17.080;2024-02-26T08:01:50;32.63;;;13.23;;
69280;SDS011;56392;51.082;17.080;2024-02-26T08:07:16;28.97;;;12.83;;
69280;SDS011;56392;51.082;17.080;2024-02-26T08:12:39;27.17;;;12.20;;
69280;SDS011;56392;51.082;17.080;2024-02-26T08:18:04;24.80;;;11.13;;
69280;SDS011;56392;51.082;17.080;2024-02-26T08:23:29;24.38;;;11.38;;
69280;SDS011;56392;51.082;17.080;2024-02-26T08:28:52;22.90;;;10.87;;
69280;SDS011;56392;51.082;17.080;2024-02-26T08:34:18;20.20;;;9.65;;
69280;SDS011;56392;51.082;17.080;2024-02-26T08:39:41;21.58;;;10.55;;
69280;SDS011;56392;51.082;17.080;2024-02-26T08:45:05;20.40;;;10.17;;
69280;SDS011;56392;51.082;17.080;2024-02-26T08:50:31;19.35;;;7.50;;
69280;SDS011;56392;51.082;17.080;2024-02-26T08:55:54;18.13;;;6.88;;
69280;SDS011;56392;51.082;17.080;2024-02-26T09:01:18;15.53;;;7.53;;
69280;SDS011;56392;51.082;17.080;2024-02-26T09:06:43;14.07;;;5.63;;
69280;SDS011;56392;51.082;17.080;2024-02-26T09:12:06;12.85;;;5.65;;
69280;SDS011;56392;51.082;17.080;2024-02-26T09:17:29;14.52;;;4.72;;
69280;SDS011;56392;51.082;17.080;2024-02-26T09:22:54;13.53;;;5.77;;
69280;SDS011;56392;51.082;17.080;2024-02-26T09:28:17;14.85;;;5.90;;
69280;SDS011;56392;51.082;17.080;2024-02-26T09:33:40;14.07;;;5.53;;
69280;SDS011;56392;51.082;17.080;2024-02-26T09:39:05;14.20;;;5.20;;
69280;SDS011;56392;51.082;17.080;2024-02-26T09:44:28;11.85;;;4.68;;
69280;SDS011;56392;51.082;17.080;2024-02-26T09:49:55;12.50;;;4.72;;
69280;SDS011;56392;51.082;17.080;2024-02-26T09:55:21;12.57;;;4.60;;
69280;SDS011;56392;51.082;17.080;2024-02-26T10:00:46;13.13;;;4.37;;
69280;SDS011;56392;51.082;17.080;2024-02-26T10:06:13;15.48;;;4.78;;
69280;SDS011;56392;51.082;17.080;2024-02-26T10:11:37;12.25;;;4.13;;
69280;SDS011;56392;51.082;17.080;2024-02-26T10:17:01;10.00;;;3.53;;
69280;SDS011;56392;51.082;17.080;2024-02-26T10:22:24;9.38;;;3.45;;
69280;SDS011;56392;51.082;17.080;2024-02-26T10:27:48;11.90;;;4.05;;
69280;SDS011;56392;51.082;17.080;2024-02-26T10:33:12;10.87;;;3.80;;
69280;SDS011;56392;51.082;17.080;2024-02-26T10:38:36;13.13;;;5.00;;
69280;SDS011;56392;51.082;17.080;2024-02-26T10:44:01;13.98;;;4.90;;
69280;SDS011;56392;51.082;17.080;2024-02-26T10:49:24;11.60;;;4.87;;
69280;SDS011;56392;51.082;17.080;2024-02-26T10:54:47;10.53;;;3.80;;
69280;SDS011;56392;51.082;17.080;2024-02-26T11:00:15;11.35;;;4.53;;
69280;SDS011;56392;51.082;17.080;2024-02-26T11:05:38;10.35;;;3.88;;
69280;SDS011;56392;51.082;17.080;2024-02-26T11:11:03;11.67;;;4.00;;
69280;SDS011;56392;51.082;17.080;2024-02-26T11:16:29;13.23;;;4.50;;
69280;SDS011;56392;51.082;17.080;2024-02-26T11:21:52;11.60;;;4.00;;
69280;SDS011;56392;51.082;17.080;2024-02-26T11:27:16;8.17;;;2.87;;
69280;SDS011;56392;51.082;17.080;2024-02-26T11:32:45;7.88;;;2.55;;
69280;SDS011;56392;51.082;17.080;2024-02-26T11:38:12;10.52;;;2.72;;
69280;SDS011;56392;51.082;17.080;2024-02-26T11:43:52;6.90;;;2.40;;
69280;SDS011;56392;51.082;17.080;2024-02-26T11:49:33;9.17;;;2.43;;
69280;SDS011;56392;51.082;17.080;2024-02-26T11:54:57;6.45;;;2.08;;
69280;SDS011;56392;51.082;17.080;2024-02-26T12:00:20;7.95;;;2.22;;
69280;SDS011;56392;51.082;17.080;2024-02-26T12:05:46;7.20;;;2.03;;
69280;SDS011;56392;51.082;17.080;2024-02-26T12:11:14;8.93;;;2.40;;
69280;SDS011;56392;51.082;17.080;2024-02-26T12:16:38;8.63;;;2.78;;
69280;SDS011;56392;51.082;17.080;2024-02-26T12:22:03;9.37;;;2.23;;
69280;SDS011;56392;51.082;17.080;2024-02-26T12:27:29;7.53;;;2.30;;
69280;SDS011;56392;51.082;17.080;2024-02-26T12:32:52;8.80;;;2.53;;
69280;SDS011;56392;51.082;17.080;2024-02-26T12:38:19;10.37;;;3.17;;
69280;SDS011;56392;51.082;17.080;2024-02-26T12:43:43;7.07;;;2.03;;
69280;SDS011;56392;51.082;17.080;2024-02-26T12:49:06;6.82;;;2.10;;
69280;SDS011;56392;51.082;17.080;2024-02-26T12:54:33;7.35;;;2.10;;
69280;SDS011;56392;51.082;17.080;2024-02-26T13:00:00;9.10;;;2.90;;
69280;SDS011;56392;51.082;17.080;2024-02-26T13:05:25;8.18;;;2.40;;
69280;SDS011;56392;51.082;17.080;2024-02-26T13:10:50;8.25;;;2.35;;
69280;SDS011;56392;51.082;17.080;2024-02-26T13:16:13;7.37;;;2.63;;
69280;SDS011;56392;51.082;17.080;2024-02-26T13:21:37;9.93;;;2.75;;
69280;SDS011;56392;51.082;17.080;2024-02-26T13:27:02;8.57;;;3.00;;
69280;SDS011;56392;51.082;17.080;2024-02-26T13:32:27;9.60;;;2.57;;
69280;SDS011;56392;51.082;17.080;2024-02-26T13:37:52;8.30;;;2.53;;
69280;SDS011;56392;51.082;17.080;2024-02-26T13:43:19;7.22;;;2.50;;
69280;SDS011;56392;51.082;17.080;2024-02-26T13:48:43;8.10;;;2.28;;
69280;SDS011;56392;51.082;17.080;2024-02-26T13:54:06;8.90;;;2.43;;
69280;SDS011;56392;51.082;17.080;2024-02-26T13:59:32;7.80;;;2.30;;
69280;SDS011;56392;51.082;17.080;2024-02-26T14:04:55;11.05;;;2.83;;
69280;SDS011;56392;51.082;17.080;2024-02-26T14:10:18;10.73;;;3.30;;
69280;SDS011;56392;51.082;17.080;2024-02-26T14:15:44;7.68;;;2.50;;
69280;SDS011;56392;51.082;17.080;2024-02-26T14:21:07;8.68;;;2.45;;
69280;SDS011;56392;51.082;17.080;2024-02-26T14:26:30;5.97;;;2.07;;
69280;SDS011;56392;51.082;17.080;2024-02-26T14:31:55;6.80;;;1.80;;
69280;SDS011;56392;51.082;17.080;2024-02-26T14:37:20;7.28;;;2.20;;
69280;SDS011;56392;51.082;17.080;2024-02-26T14:42:43;8.30;;;2.33;;
69280;SDS011;56392;51.082;17.080;2024-02-26T14:48:10;7.87;;;2.07;;
69280;SDS011;56392;51.082;17.080;2024-02-26T14:53:33;7.95;;;2.28;;
69280;SDS011;56392;51.082;17.080;2024-02-26T14:58:56;7.63;;;2.28;;
69280;SDS011;56392;51.082;17.080;2024-02-26T15:04:23;8.67;;;2.50;;
69280;SDS011;56392;51.082;17.080;2024-02-26T15:09:47;8.50;;;2.92;;
69280;SDS011;56392;51.082;17.080;2024-02-26T15:15:10;10.48;;;2.60;;
69280;SDS011;56392;51.082;17.080;2024-02-26T15:20:35;8.10;;;2.40;;
69280;SDS011;56392;51.082;17.080;2024-02-26T15:25:58;11.17;;;2.37;;
69280;SDS011;56392;51.082;17.080;2024-02-26T15:31:24;6.95;;;2.40;;
69280;SDS011;56392;51.082;17.080;2024-02-26T15:36:50;7.90;;;2.78;;
69280;SDS011;56392;51.082;17.080;2024-02-26T15:42:14;8.73;;;2.70;;
69280;SDS011;56392;51.082;17.080;2024-02-26T15:47:37;8.80;;;3.30;;
69280;SDS011;56392;51.082;17.080;2024-02-26T15:53:01;11.68;;;3.80;;
69280;SDS011;56392;51.082;17.080;2024-02-26T15:58:24;16.83;;;4.80;;
69280;SDS011;56392;51.082;17.080;2024-02-26T16:03:47;9.68;;;3.97;;
69280;SDS011;56392;51.082;17.080;2024-02-26T16:09:13;15.43;;;4.25;;
69280;SDS011;56392;51.082;17.080;2024-02-26T16:14:38;14.43;;;4.30;;
69280;SDS011;56392;51.082;17.080;2024-02-26T16:20:08;18.87;;;5.40;;
69280;SDS011;56392;51.082;17.080;2024-02-26T16:25:37;14.63;;;4.38;;
69280;SDS011;56392;51.082;17.080;2024-02-26T16:31:01;10.40;;;3.85;;
69280;SDS011;56392;51.082;17.080;2024-02-26T16:36:25;9.97;;;3.70;;
69280;SDS011;56392;51.082;17.080;2024-02-26T16:41:52;10.77;;;3.60;;
69280;SDS011;56392;51.082;17.080;2024-02-26T16:47:15;10.02;;;3.70;;
69280;SDS011;56392;51.082;17.080;2024-02-26T16:52:39;16.23;;;4.00;;
69280;SDS011;56392;51.082;17.080;2024-02-26T16:58:04;11.48;;;4.22;;
69280;SDS011;56392;51.082;17.080;2024-02-26T17:03:27;14.18;;;5.18;;
69280;SDS011;56392;51.082;17.080;2024-02-26T17:08:50;13.47;;;4.93;;
69280;SDS011;56392;51.082;17.080;2024-02-26T17:14:16;21.50;;;6.37;;
69280;SDS011;56392;51.082;17.080;2024-02-26T17:19:39;14.90;;;5.93;;
69280;SDS011;56392;51.082;17.080;2024-02-26T17:25:03;14.65;;;5.80;;
69280;SDS011;56392;51.082;17.080;2024-02-26T17:30:28;16.87;;;6.43;;
69280;SDS011;56392;51.082;17.080;2024-02-26T17:35:51;15.05;;;6.35;;
69280;SDS011;56392;51.082;17.080;2024-02-26T17:41:14;18.02;;;6.00;;
69280;SDS011;56392;51.082;17.080;2024-02-26T17:46:39;10.90;;;4.30;;
69280;SDS011;56392;51.082;17.080;2024-02-26T17:52:02;12.75;;;3.95;;
69280;SDS011;56392;51.082;17.080;2024-02-26T17:57:26;13.77;;;4.68;;
69280;SDS011;56392;51.082;17.080;2024-02-26T18:02:51;13.63;;;4.97;;
69280;SDS011;56392;51.082;17.080;2024-02-26T18:08:14;14.97;;;4.77;;
69280;SDS011;56392;51.082;17.080;2024-02-26T18:13:43;11.25;;;4.25;;
69280;SDS011;56392;51.082;17.080;2024-02-26T18:19:25;11.33;;;4.10;;
69280;SDS011;56392;51.082;17.080;2024-02-26T18:24:48;12.73;;;4.00;;
69280;SDS011;56392;51.082;17.080;2024-02-26T18:30:11;12.80;;;4.80;;
69280;SDS011;56392;51.082;17.080;2024-02-26T18:35:36;15.03;;;5.70;;
69280;SDS011;56392;51.082;17.080;2024-02-26T18:40:59;13.60;;;5.55;;
69280;SDS011;56392;51.082;17.080;2024-02-26T18:46:23;15.98;;;6.10;;
69280;SDS011;56392;51.082;17.080;2024-02-26T18:51:47;11.80;;;4.97;;
69280;SDS011;56392;51.082;17.080;2024-02-26T18:57:10;17.10;;;6.17;;
69280;SDS011;56392;51.082;17.080;2024-02-26T19:02:34;16.92;;;6.55;;
69280;SDS011;56392;51.082;17.080;2024-02-26T19:07:58;24.13;;;7.53;;
69280;SDS011;56392;51.082;17.080;2024-02-26T19:13:22;18.90;;;8.07;;
69280;SDS011;56392;51.082;17.080;2024-02-26T19:18:46;25.55;;;11.77;;
69280;SDS011;56392;51.082;17.080;2024-02-26T19:24:11;30.35;;;13.98;;
69280;SDS011;56392;51.082;17.080;2024-02-26T19:29:37;31.90;;;13.97;;
69280;SDS011;56392;51.082;17.080;2024-02-26T19:35:00;27.90;;;10.73;;
69280;SDS011;56392;51.082;17.080;2024-02-26T19:40:25;21.10;;;9.55;;
69280;SDS011;56392;51.082;17.080;2024-02-26T19:45:49;22.80;;;9.83;;
69280;SDS011;56392;51.082;17.080;2024-02-26T19:51:14;20.50;;;8.00;;
69280;SDS011;56392;51.082;17.080;2024-02-26T19:56:39;16.77;;;6.93;;
69280;SDS011;56392;51.082;17.080;2024-02-26T20:02:04;17.33;;;6.97;;
69280;SDS011;56392;51.082;17.080;2024-02-26T20:07:28;13.03;;;5.40;;
69280;SDS011;56392;51.082;17.080;2024-02-26T20:12:53;15.65;;;6.00;;
69280;SDS011;56392;51.082;17.080;2024-02-26T20:18:19;17.05;;;7.15;;
69280;SDS011;56392;51.082;17.080;2024-02-26T20:23:42;20.10;;;7.60;;
69280;SDS011;56392;51.082;17.080;2024-02-26T20:29:07;28.95;;;10.82;;
69280;SDS011;56392;51.082;17.080;2024-02-26T20:34:30;28.08;;;11.75;;
69280;SDS011;56392;51.082;17.080;2024-02-26T20:39:54;25.53;;;11.20;;
69280;SDS011;56392;51.082;17.080;2024-02-26T20:45:18;28.67;;;12.33;;
69280;SDS011;56392;51.082;17.080;2024-02-26T20:50:42;33.63;;;13.38;;
69280;SDS011;56392;51.082;17.080;2024-02-26T20:56:05;33.08;;;13.57;;
69280;SDS011;56392;51.082;17.080;2024-02-26T21:01:30;32.23;;;13.73;;
69280;SDS011;56392;51.082;17.080;2024-02-26T21:06:53;36.97;;;14.93;;
69280;SDS011;56392;51.082;17.080;2024-02-26T21:12:16;30.70;;;13.20;;
69280;SDS011;56392;51.082;17.080;2024-02-26T21:17:41;35.73;;;16.60;;
69280;SDS011;56392;51.082;17.080;2024-02-26T21:23:04;38.22;;;17.95;;
69280;SDS011;56392;51.082;17.080;2024-02-26T21:28:29;36.58;;;17.02;;
69280;SDS011;56392;51.082;17.080;2024-02-26T21:33:53;41.10;;;19.50;;
69280;SDS011;56392;51.082;17.080;2024-02-26T21:39:16;45.87;;;18.37;;
69280;SDS011;56392;51.082;17.080;2024-02-26T21:44:39;33.05;;;15.13;;
69280;SDS011;56392;51.082;17.080;2024-02-26T21:50:04;28.75;;;12.15;;
69280;SDS011;56392;51.082;17.080;2024-02-26T21:55:28;29.17;;;13.50;;
69280;SDS011;56392;51.082;17.080;2024-02-26T22:00:51;50.63;;;22.25;;
69280;SDS011;56392;51.082;17.080;2024-02-26T22:06:17;40.28;;;18.42;;
69280;SDS011;56392;51.082;17.080;2024-02-26T22:11:40;44.37;;;17.97;;
69280;SDS011;56392;51.082;17.080;2024-02-26T22:17:03;30.67;;;14.52;;
69280;SDS011;56392;51.082;17.080;2024-02-26T22:22:27;37.13;;;16.40;;
69280;SDS011;56392;51.082;17.080;2024-02-26T22:27:50;51.23;;;23.87;;
69280;SDS011;56392;51.082;17.080;2024-02-26T22:33:14;49.23;;;22.57;;
69280;SDS011;56392;51.082;17.080;2024-02-26T22:38:38;49.28;;;22.80;;
69280;SDS011;56392;51.082;17.080;2024-02-26T22:44:02;52.03;;;22.48;;
69280;SDS011;56392;51.082;17.080;2024-02-26T22:49:24;46.70;;;22.33;;
69280;SDS011;56392;51.082;17.080;2024-02-26T22:54:49;49.55;;;23.05;;
69280;SDS011;56392;51.082;17.080;2024-02-26T23:00:15;50.97;;;20.70;;
69280;SDS011;56392;51.082;17.080;2024-02-26T23:05:47;52.50;;;21.03;;
69280;SDS011;56392;51.082;17.080;2024-02-26T23:11:12;52.53;;;22.52;;
69280;SDS011;56392;51.082;17.080;2024-02-26T23:16:35;76.00;;;28.27;;
69280;SDS011;56392;51.082;17.080;2024-02-26T23:21:58;79.87;;;28.47;;
69280;SDS011;56392;51.082;17.080;2024-02-26T23:27:22;65.80;;;25.70;;
69280;SDS011;56392;51.082;17.080;2024-02-26T23:32:45;73.95;;;25.95;;
69280;SDS011;56392;51.082;17.080;2024-02-26T23:38:09;57.42;;;22.63;;
69280;SDS011;56392;51.082;17.080;2024-02-26T23:43:33;73.97;;;27.50;;
69280;SDS011;56392;51.082;17.080;2024-02-26T23:48:56;92.50;;;32.53;;
69280;SDS011;56392;51.082;17.080;2024-02-26T23:54:20;106.25;;;34.17;;
69280;SDS011;56392;51.082;17.080;2024-02-26T23:59:44;88.93;;;31.57;;
